createdAt,value
2023-05-15T00:02:43.836Z,3.42
2023-05-15T00:07:45.506Z,3.50
2023-05-15T00:12:47.068Z,4.20
2023-05-15T00:17:48.627Z,3.88
2023-05-15T00:22:50.328Z,3.65
2023-05-15T00:27:51.860Z,3.33
2023-05-15T00:32:53.520Z,3.45
2023-05-15T00:37:55.076Z,4.00
2023-05-15T00:42:56.805Z,3.40
2023-05-15T00:47:59.252Z,3.67
2023-05-15T00:53:00.888Z,3.45
2023-05-15T00:58:03.349Z,3.38
2023-05-15T01:03:06.751Z,3.47
2023-05-15T01:08:19.607Z,5.32
2023-05-15T01:13:22.887Z,3.38
2023-05-15T01:18:25.984Z,5.38
2023-05-15T01:23:38.688Z,3.20
2023-05-15T01:28:43.617Z,3.25
2023-05-15T01:33:47.728Z,3.97
2023-05-15T01:38:55.839Z,4.28
2023-05-15T01:44:21.005Z,4.65
2023-05-15T01:49:26.240Z,3.80
2023-05-15T01:54:29.058Z,4.20
2023-05-15T01:59:30.875Z,3.80
2023-05-15T02:04:33.471Z,4.40
2023-05-15T02:09:35.237Z,3.60
2023-05-15T02:14:37.407Z,3.78
2023-05-15T02:19:38.980Z,3.47
2023-05-15T02:24:40.701Z,4.63
2023-05-15T02:30:01.073Z,12.93
2023-05-15T02:35:08.466Z,13.23
2023-05-15T02:40:11.414Z,8.43
2023-05-15T02:45:14.072Z,6.70
2023-05-15T02:50:15.817Z,5.80
2023-05-15T02:55:17.431Z,4.72
2023-05-15T03:00:19.397Z,4.40
2023-05-15T03:05:21.226Z,4.20
2023-05-15T03:10:24.256Z,4.22
2023-05-15T03:15:26.136Z,5.25
2023-05-15T03:20:28.080Z,5.68
2023-05-15T03:25:29.730Z,5.55
2023-05-15T03:30:31.362Z,5.20
2023-05-15T03:35:32.923Z,4.10
2023-05-15T03:40:34.493Z,3.75
2023-05-15T03:45:36.296Z,6.10
2023-05-15T03:50:39.146Z,3.83
2023-05-15T03:55:40.847Z,4.10
2023-05-15T04:00:42.469Z,3.65
2023-05-15T04:05:44.378Z,3.83
2023-05-15T04:10:46.001Z,4.43
2023-05-15T04:15:48.709Z,3.70
2023-05-15T04:20:50.580Z,4.55
2023-05-15T04:25:53.716Z,3.92
2023-05-15T04:30:55.271Z,3.83
2023-05-15T04:35:56.947Z,3.90
2023-05-15T04:40:58.564Z,3.90
2023-05-15T04:46:00.154Z,3.97
2023-05-15T04:51:01.772Z,4.10
2023-05-15T04:56:03.549Z,3.85
2023-05-15T05:01:05.220Z,3.75
2023-05-15T05:06:07.049Z,4.13
2023-05-15T05:11:08.645Z,4.60
2023-05-15T05:16:10.209Z,4.50
2023-05-15T05:21:11.798Z,5.10
2023-05-15T05:26:13.420Z,6.05
2023-05-15T05:31:15.196Z,5.03
2023-05-15T05:36:16.939Z,5.20
2023-05-15T05:41:18.772Z,5.28
2023-05-15T05:46:21.096Z,6.57
2023-05-15T05:51:22.867Z,6.30
2023-05-15T05:56:24.556Z,6.15
2023-05-15T06:01:26.943Z,5.90
2023-05-15T06:06:28.888Z,7.30
2023-05-15T06:11:30.538Z,5.88
2023-05-15T06:16:32.160Z,6.15
2023-05-15T06:21:34.100Z,6.43
2023-05-15T06:26:35.973Z,6.82
2023-05-15T06:31:37.561Z,6.38
2023-05-15T06:36:39.245Z,8.75
2023-05-15T06:41:40.811Z,7.60
2023-05-15T06:46:47.000Z,7.70
2023-05-15T06:51:48.585Z,6.07
2023-05-15T06:56:50.150Z,10.85
2023-05-15T07:01:51.785Z,6.32
2023-05-15T07:06:53.426Z,6.30
2023-05-15T07:11:55.012Z,6.55
2023-05-15T07:16:56.705Z,8.20
2023-05-15T07:21:58.423Z,5.93
2023-05-15T07:27:00.067Z,5.82
2023-05-15T07:32:01.711Z,6.85
2023-05-15T07:37:03.416Z,9.05
2023-05-15T07:42:05.211Z,6.75
2023-05-15T07:47:06.826Z,6.32
2023-05-15T07:52:08.463Z,6.50
2023-05-15T07:57:10.365Z,6.40
2023-05-15T08:02:11.954Z,7.00
2023-05-15T08:07:14.433Z,5.85
2023-05-15T08:12:17.969Z,6.38
2023-05-15T08:17:20.737Z,6.60
2023-05-15T08:22:22.554Z,8.77
2023-05-15T08:27:24.149Z,7.63
2023-05-15T08:32:26.703Z,6.55
2023-05-15T08:37:28.392Z,7.65
2023-05-15T08:42:37.790Z,8.05
2023-05-15T08:47:41.206Z,6.07
2023-05-15T08:52:45.677Z,6.97
2023-05-15T08:57:47.812Z,8.43
2023-05-15T09:02:49.576Z,7.90
2023-05-15T09:07:52.001Z,6.95
2023-05-15T09:12:53.555Z,6.57
2023-05-15T09:17:55.193Z,9.55
2023-05-15T09:22:57.772Z,7.32
2023-05-15T09:27:59.702Z,7.70
2023-05-15T09:33:03.709Z,6.13
2023-05-15T09:38:14.307Z,8.82
2023-05-15T09:43:16.315Z,7.60
2023-05-15T09:48:18.137Z,7.45
2023-05-15T09:53:21.835Z,7.22
2023-05-15T09:58:23.560Z,8.45
2023-05-15T10:03:25.346Z,6.97
2023-05-15T10:08:28.357Z,5.30
2023-05-15T10:13:31.894Z,6.25
2023-05-15T10:18:34.097Z,5.75
2023-05-15T10:23:36.726Z,6.18
2023-05-15T10:28:39.029Z,6.68
2023-05-15T10:33:41.211Z,6.35
2023-05-15T10:38:43.958Z,8.32
2023-05-15T10:43:45.941Z,6.57
2023-05-15T10:48:47.630Z,7.25
2023-05-15T10:53:49.286Z,5.07
2023-05-15T10:58:51.733Z,9.43
2023-05-15T11:04:14.222Z,4.75
2023-05-15T11:09:21.594Z,7.97
2023-05-15T11:14:27.517Z,5.43
2023-05-15T11:19:29.061Z,5.22
2023-05-15T11:24:31.836Z,4.88
2023-05-15T11:29:33.463Z,7.47
2023-05-15T11:34:35.721Z,6.82
2023-05-15T11:39:39.065Z,6.35
2023-05-15T11:44:40.748Z,5.97
2023-05-15T11:49:42.550Z,6.43
2023-05-15T11:54:44.312Z,9.65
2023-05-15T11:59:45.883Z,8.52
2023-05-15T12:04:49.773Z,6.68
2023-05-15T12:09:52.594Z,10.88
2023-05-15T12:14:58.437Z,9.25
2023-05-15T12:20:01.173Z,8.88
2023-05-15T12:25:02.784Z,11.00
2023-05-15T12:30:05.238Z,7.47
2023-05-15T12:35:07.055Z,8.05
2023-05-15T12:40:10.700Z,7.97
2023-05-15T12:45:16.444Z,8.13
2023-05-15T12:50:20.189Z,7.95
2023-05-15T12:55:26.202Z,8.13
2023-05-15T13:00:29.434Z,8.00
2023-05-15T13:05:35.440Z,9.73
2023-05-15T13:10:38.096Z,8.77
2023-05-15T13:15:42.667Z,6.95
2023-05-15T13:20:51.622Z,7.50
2023-05-15T13:25:53.179Z,10.00
2023-05-15T13:30:54.745Z,9.82
2023-05-15T13:35:57.264Z,7.80
2023-05-15T13:40:58.985Z,9.05
2023-05-15T13:46:00.685Z,6.88
2023-05-15T13:51:02.267Z,8.75
2023-05-15T13:56:03.922Z,8.65
2023-05-15T14:01:07.102Z,8.40
2023-05-15T14:06:09.202Z,10.65
2023-05-15T14:11:10.871Z,8.80
2023-05-15T14:16:12.456Z,8.75
2023-05-15T14:21:14.003Z,8.50
2023-05-15T14:26:15.631Z,8.00
2023-05-15T14:31:17.239Z,8.60
2023-05-15T14:36:18.899Z,8.93
2023-05-15T14:41:21.637Z,8.23
2023-05-15T14:46:23.358Z,7.68
2023-05-15T14:51:25.010Z,5.57
2023-05-15T14:56:26.581Z,7.28
2023-05-15T15:01:28.182Z,5.57
2023-05-15T15:06:29.800Z,4.93
2023-05-15T15:11:31.347Z,5.38
2023-05-15T15:16:33.551Z,6.00
2023-05-15T15:21:36.517Z,4.68
2023-05-15T15:26:38.105Z,5.32
2023-05-15T15:31:39.733Z,5.50
2023-05-15T15:36:41.499Z,8.85
2023-05-15T15:41:43.157Z,4.95
2023-05-15T15:46:45.916Z,6.13
2023-05-15T15:51:47.467Z,5.20
2023-05-15T15:56:49.272Z,5.38
2023-05-15T16:01:51.103Z,7.10
2023-05-15T16:06:52.713Z,5.85
2023-05-15T16:11:54.347Z,7.70
2023-05-15T16:16:56.057Z,5.28
2023-05-15T16:21:57.699Z,5.75
2023-05-15T16:26:59.293Z,6.65
2023-05-15T16:32:00.950Z,6.28
2023-05-15T16:37:03.543Z,5.75
2023-05-15T16:42:08.595Z,6.18
2023-05-15T16:47:11.075Z,9.23
2023-05-15T16:52:12.635Z,6.95
2023-05-15T16:57:14.190Z,6.57
2023-05-15T17:02:16.099Z,7.00
2023-05-15T17:07:17.935Z,5.97
2023-05-15T17:12:19.740Z,7.03
2023-05-15T17:17:23.114Z,5.82
2023-05-15T17:22:24.964Z,6.63
2023-05-15T17:27:26.626Z,5.30
2023-05-15T17:32:28.310Z,5.97
2023-05-15T17:37:30.037Z,5.68
2023-05-15T17:42:31.924Z,5.93
2023-05-15T17:47:33.556Z,6.82
2023-05-15T17:52:36.503Z,6.95
2023-05-15T17:57:38.205Z,6.57
2023-05-15T18:02:39.850Z,7.10
2023-05-15T18:07:42.398Z,6.88
2023-05-15T18:12:44.187Z,7.03
2023-05-15T18:17:46.356Z,7.10
2023-05-15T18:22:48.065Z,6.43
2023-05-15T18:27:49.636Z,5.57
2023-05-15T18:32:51.310Z,5.80
2023-05-15T18:37:52.914Z,5.30
2023-05-15T18:42:55.778Z,5.10
2023-05-15T18:47:57.386Z,7.10
2023-05-15T18:52:59.053Z,6.28
2023-05-15T18:58:00.766Z,5.60
2023-05-15T19:03:02.556Z,6.10
2023-05-15T19:08:04.480Z,5.60
2023-05-15T19:13:06.267Z,5.85
2023-05-15T19:18:08.984Z,7.22
2023-05-15T19:23:10.579Z,5.78
2023-05-15T19:28:12.976Z,8.98
2023-05-15T19:33:17.539Z,12.02
2023-05-15T19:38:19.214Z,8.68
2023-05-15T19:43:20.825Z,7.50
2023-05-15T19:48:22.401Z,8.23
2023-05-15T19:53:24.335Z,7.35
2023-05-15T19:58:26.012Z,8.00
2023-05-15T20:03:32.816Z,8.02
2023-05-15T20:08:34.791Z,9.07
2023-05-15T20:13:37.446Z,7.80
2023-05-15T20:18:39.952Z,7.85
2023-05-15T20:23:41.538Z,8.82
2023-05-15T20:28:45.226Z,7.55
2023-05-15T20:33:47.169Z,8.25
2023-05-15T20:38:50.562Z,8.10
2023-05-15T20:43:52.161Z,8.73
2023-05-15T20:48:53.878Z,9.73
2023-05-15T20:53:56.107Z,8.95
2023-05-15T20:58:59.758Z,9.38
2023-05-15T21:04:01.667Z,9.35
2023-05-15T21:09:03.405Z,9.15
2023-05-15T21:14:06.118Z,8.75
2023-05-15T21:19:07.831Z,8.43
2023-05-15T21:24:09.486Z,8.25
2023-05-15T21:29:11.266Z,7.72
2023-05-15T21:34:12.984Z,6.68
2023-05-15T21:39:15.292Z,6.35
2023-05-15T21:44:17.152Z,6.05
2023-05-15T21:49:18.822Z,6.22
2023-05-15T21:54:20.590Z,7.85
2023-05-15T21:59:22.219Z,6.22
2023-05-15T22:04:23.851Z,6.15
2023-05-15T22:09:25.414Z,7.45
2023-05-15T22:14:26.993Z,9.93
2023-05-15T22:19:33.121Z,6.32
2023-05-15T22:24:35.238Z,7.15
2023-05-15T22:29:36.838Z,7.32
2023-05-15T22:34:38.426Z,6.10
2023-05-15T22:39:40.095Z,9.00
2023-05-15T22:44:41.746Z,6.22
2023-05-15T22:49:43.309Z,6.25
2023-05-15T22:54:44.932Z,6.13
2023-05-15T22:59:46.713Z,7.28
2023-05-15T23:04:48.330Z,7.60
2023-05-15T23:09:49.940Z,6.82
2023-05-15T23:14:51.522Z,7.57
2023-05-15T23:19:53.118Z,8.20
2023-05-15T23:24:54.695Z,6.85
2023-05-15T23:29:56.310Z,7.70
2023-05-15T23:34:58.517Z,6.68
2023-05-15T23:40:00.092Z,6.78
2023-05-15T23:45:01.712Z,7.03
2023-05-15T23:50:03.656Z,7.32
2023-05-15T23:55:05.649Z,7.22
